sensor_id;sensor_type;location;lat;lon;timestamp;pressure;altitude;pressure_sealevel;temperature;humidity
8318;BME280;4196;48.926;8.964;2024-01-25T00:00:39;100183.16;;;9.04;87.78
8318;BME280;4196;48.926;8.964;2024-01-25T00:03:25;100221.75;;;9.37;87.22
8318;BME280;4196;48.926;8.964;2024-01-25T00:06:12;100187.88;;;9.23;87.10
8318;BME280;4196;48.926;8.964;2024-01-25T00:08:58;100222.50;;;9.31;87.39
8318;BME280;4196;48.926;8.964;2024-01-25T00:11:45;100187.94;;;9.26;87.24
8318;BME280;4196;48.926;8.964;2024-01-25T00:14:31;100187.94;;;9.26;86.88
8318;BME280;4196;48.926;8.964;2024-01-25T00:17:18;100204.44;;;9.33;86.85
8318;BME280;4196;48.926;8.964;2024-01-25T00:20:05;100221.06;;;9.46;86.77
8318;BME280;4196;48.926;8.964;2024-01-25T00:22:52;100210.63;;;9.39;87.00
8318;BME280;4196;48.926;8.964;2024-01-25T00:25:38;100189.88;;;9.36;86.85
8318;BME280;4196;48.926;8.964;2024-01-25T00:28:26;100233.47;;;9.62;87.40
8318;BME280;4196;48.926;8.964;2024-01-25T00:31:12;100227.38;;;9.58;87.39
8318;BME280;4196;48.926;8.964;2024-01-25T00:34:00;100242.06;;;9.61;88.30
8318;BME280;4196;48.926;8.964;2024-01-25T00:36:47;100211.41;;;9.37;88.97
8318;BME280;4196;48.926;8.964;2024-01-25T00:39:34;100216.84;;;9.49;88.82
8318;BME280;4196;48.926;8.964;2024-01-25T00:42:22;100219.56;;;9.57;88.71
8318;BME280;4196;48.926;8.964;2024-01-25T00:45:09;100209.19;;;9.54;89.35
8318;BME280;4196;48.926;8.964;2024-01-25T00:47:56;100190.91;;;9.46;89.37
8318;BME280;4196;48.926;8.964;2024-01-25T00:50:43;100215.25;;;9.56;90.01
8318;BME280;4196;48.926;8.964;2024-01-25T00:53:29;100176.22;;;9.43;89.48
8318;BME280;4196;48.926;8.964;2024-01-25T00:56:17;100191.84;;;9.50;89.35
8318;BME280;4196;48.926;8.964;2024-01-25T00:59:04;100177.84;;;9.38;89.99
8318;BME280;4196;48.926;8.964;2024-01-25T01:01:52;100171.69;;;9.32;89.88
8318;BME280;4196;48.926;8.964;2024-01-25T01:04:40;100184.78;;;9.39;90.26
8318;BME280;4196;48.926;8.964;2024-01-25T01:07:34;100224.06;;;9.65;90.24
8318;BME280;4196;48.926;8.964;2024-01-25T01:10:21;100197.00;;;9.50;90.52
8318;BME280;4196;48.926;8.964;2024-01-25T01:13:08;100187.41;;;9.42;91.24
8318;BME280;4196;48.926;8.964;2024-01-25T01:15:54;100200.59;;;9.55;91.30
8318;BME280;4196;48.926;8.964;2024-01-25T01:18:40;100209.34;;;9.61;91.11
8318;BME280;4196;48.926;8.964;2024-01-25T01:21:27;100202.38;;;9.57;91.17
8318;BME280;4196;48.926;8.964;2024-01-25T01:24:13;100149.72;;;9.10;92.52
8318;BME280;4196;48.926;8.964;2024-01-25T01:27:00;100175.03;;;9.28;91.59
8318;BME280;4196;48.926;8.964;2024-01-25T01:29:46;100223.06;;;9.59;91.66
8318;BME280;4196;48.926;8.964;2024-01-25T01:32:33;100161.00;;;9.15;91.32
8318;BME280;4196;48.926;8.964;2024-01-25T01:35:19;100215.31;;;9.59;90.92
8318;BME280;4196;48.926;8.964;2024-01-25T01:38:06;100185.50;;;9.34;90.81
8318;BME280;4196;48.926;8.964;2024-01-25T01:40:53;100142.75;;;9.07;91.16
8318;BME280;4196;48.926;8.964;2024-01-25T01:43:40;100223.00;;;9.56;91.45
8318;BME280;4196;48.926;8.964;2024-01-25T01:49:19;100215.97;;;9.49;91.57
8318;BME280;4196;48.926;8.964;2024-01-25T01:52:06;100227.09;;;9.46;91.58
8318;BME280;4196;48.926;8.964;2024-01-25T01:54:53;100203.59;;;9.34;91.48
8318;BME280;4196;48.926;8.964;2024-01-25T01:57:40;100185.56;;;9.37;91.84
8318;BME280;4196;48.926;8.964;2024-01-25T02:00:30;100184.50;;;9.27;91.51
8318;BME280;4196;48.926;8.964;2024-01-25T02:03:19;100200.22;;;9.38;91.24
8318;BME280;4196;48.926;8.964;2024-01-25T02:06:06;100193.19;;;9.29;91.92
8318;BME280;4196;48.926;8.964;2024-01-25T02:08:53;100187.94;;;9.26;92.09
8318;BME280;4196;48.926;8.964;2024-01-25T02:11:40;100154.03;;;9.11;91.55
8318;BME280;4196;48.926;8.964;2024-01-25T02:14:26;100192.25;;;9.26;91.93
8318;BME280;4196;48.926;8.964;2024-01-25T02:17:13;100214.88;;;9.37;91.15
8318;BME280;4196;48.926;8.964;2024-01-25T02:20:00;100205.19;;;9.27;91.16
8318;BME280;4196;48.926;8.964;2024-01-25T02:22:49;100196.63;;;9.30;90.87
8318;BME280;4196;48.926;8.964;2024-01-25T02:25:35;100215.56;;;9.29;91.22
8318;BME280;4196;48.926;8.964;2024-01-25T02:28:21;100192.94;;;9.17;90.73
8318;BME280;4196;48.926;8.964;2024-01-25T02:31:08;100200.63;;;9.15;90.81
8318;BME280;4196;48.926;8.964;2024-01-25T02:33:55;100199.69;;;9.12;90.25
8318;BME280;4196;48.926;8.964;2024-01-25T02:36:42;100152.72;;;8.90;90.03
8318;BME280;4196;48.926;8.964;2024-01-25T02:39:29;100150.97;;;8.89;89.27
8318;BME280;4196;48.926;8.964;2024-01-25T02:42:15;100218.81;;;9.20;89.99
8318;BME280;4196;48.926;8.964;2024-01-25T02:45:03;100230.91;;;9.21;90.08
8318;BME280;4196;48.926;8.964;2024-01-25T02:47:49;100198.56;;;8.99;90.33
8318;BME280;4196;48.926;8.964;2024-01-25T02:50:36;100186.53;;;9.01;90.24
8318;BME280;4196;48.926;8.964;2024-01-25T02:53:23;100194.34;;;9.03;90.22
8318;BME280;4196;48.926;8.964;2024-01-25T02:56:09;100215.25;;;9.13;90.54
8318;BME280;4196;48.926;8.964;2024-01-25T02:58:56;100215.13;;;9.09;90.96
8318;BME280;4196;48.926;8.964;2024-01-25T03:01:44;100220.34;;;9.12;90.63
8318;BME280;4196;48.926;8.964;2024-01-25T03:04:31;100173.19;;;8.81;90.16
8318;BME280;4196;48.926;8.964;2024-01-25T03:07:17;100221.91;;;9.04;90.89
8318;BME280;4196;48.926;8.964;2024-01-25T03:10:05;100236.63;;;9.06;91.31
8318;BME280;4196;48.926;8.964;2024-01-25T03:12:51;100223.53;;;8.99;90.95
8318;BME280;4196;48.926;8.964;2024-01-25T03:15:38;100242.66;;;9.07;91.48
8318;BME280;4196;48.926;8.964;2024-01-25T03:18:24;100198.94;;;8.78;91.50
8318;BME280;4196;48.926;8.964;2024-01-25T03:21:11;100247.75;;;9.04;91.55
8318;BME280;4196;48.926;8.964;2024-01-25T03:23:57;100232.16;;;9.01;90.93
8318;BME280;4196;48.926;8.964;2024-01-25T03:26:44;100220.53;;;8.80;91.76
8318;BME280;4196;48.926;8.964;2024-01-25T03:29:30;100251.69;;;8.88;91.56
8318;BME280;4196;48.926;8.964;2024-01-25T03:32:17;100220.31;;;8.73;91.49
8318;BME280;4196;48.926;8.964;2024-01-25T03:35:04;100273.66;;;9.07;91.20
8318;BME280;4196;48.926;8.964;2024-01-25T03:37:50;100250.09;;;8.93;90.48
8318;BME280;4196;48.926;8.964;2024-01-25T03:40:37;100259.31;;;8.83;90.44
8318;BME280;4196;48.926;8.964;2024-01-25T03:43:23;100236.63;;;8.70;89.74
8318;BME280;4196;48.926;8.964;2024-01-25T03:46:15;100276.13;;;9.02;89.64
8318;BME280;4196;48.926;8.964;2024-01-25T03:49:02;100277.63;;;8.92;88.94
8318;BME280;4196;48.926;8.964;2024-01-25T03:51:49;100246.88;;;8.67;89.64
8318;BME280;4196;48.926;8.964;2024-01-25T03:54:38;100213.81;;;8.51;89.33
8318;BME280;4196;48.926;8.964;2024-01-25T03:57:24;100262.81;;;8.85;88.82
8318;BME280;4196;48.926;8.964;2024-01-25T04:00:11;100262.03;;;8.88;88.84
8318;BME280;4196;48.926;8.964;2024-01-25T04:02:58;100284.34;;;8.86;89.00
8318;BME280;4196;48.926;8.964;2024-01-25T04:05:45;100282.38;;;8.76;89.20
8318;BME280;4196;48.926;8.964;2024-01-25T04:08:32;100270.47;;;8.81;88.91
8318;BME280;4196;48.926;8.964;2024-01-25T04:11:18;100288.81;;;8.93;88.45
8318;BME280;4196;48.926;8.964;2024-01-25T04:14:05;100278.16;;;8.79;88.29
8318;BME280;4196;48.926;8.964;2024-01-25T04:16:51;100274.53;;;8.71;88.37
8318;BME280;4196;48.926;8.964;2024-01-25T04:19:37;100309.38;;;8.88;88.12
8318;BME280;4196;48.926;8.964;2024-01-25T04:22:24;100266.00;;;8.74;88.04
8318;BME280;4196;48.926;8.964;2024-01-25T04:25:11;100295.34;;;8.77;87.97
8318;BME280;4196;48.926;8.964;2024-01-25T04:27:57;100262.38;;;8.67;87.98
8318;BME280;4196;48.926;8.964;2024-01-25T04:30:43;100279.41;;;8.59;88.74
8318;BME280;4196;48.926;8.964;2024-01-25T04:33:30;100274.25;;;8.60;89.17
8318;BME280;4196;48.926;8.964;2024-01-25T04:36:16;100272.47;;;8.58;89.11
8318;BME280;4196;48.926;8.964;2024-01-25T04:39:03;100307.13;;;8.66;88.77
8318;BME280;4196;48.926;8.964;2024-01-25T04:41:49;100276.34;;;8.40;88.46
8318;BME280;4196;48.926;8.964;2024-01-25T04:44:36;100252.75;;;8.28;88.20
8318;BME280;4196;48.926;8.964;2024-01-25T04:47:23;100270.09;;;8.32;87.99
8318;BME280;4196;48.926;8.964;2024-01-25T04:50:09;100310.13;;;8.50;87.31
8318;BME280;4196;48.926;8.964;2024-01-25T04:52:56;100276.41;;;8.12;88.29
8318;BME280;4196;48.926;8.964;2024-01-25T04:55:43;100303.75;;;8.05;89.06
8318;BME280;4196;48.926;8.964;2024-01-25T04:58:29;100327.94;;;8.09;89.47
8318;BME280;4196;48.926;8.964;2024-01-25T05:01:16;100333.84;;;8.05;89.97
8318;BME280;4196;48.926;8.964;2024-01-25T05:04:03;100305.50;;;7.76;90.34
8318;BME280;4196;48.926;8.964;2024-01-25T05:06:50;100333.06;;;7.77;91.19
8318;BME280;4196;48.926;8.964;2024-01-25T05:09:37;100328.38;;;7.64;91.84
8318;BME280;4196;48.926;8.964;2024-01-25T05:12:23;100319.88;;;7.39;91.40
8318;BME280;4196;48.926;8.964;2024-01-25T05:15:10;100334.28;;;7.61;91.81
8318;BME280;4196;48.926;8.964;2024-01-25T05:17:56;100282.63;;;7.28;91.75
8318;BME280;4196;48.926;8.964;2024-01-25T05:20:43;100346.19;;;7.56;91.36
8318;BME280;4196;48.926;8.964;2024-01-25T05:23:29;100321.69;;;7.42;90.77
8318;BME280;4196;48.926;8.964;2024-01-25T05:26:16;100328.00;;;7.52;90.43
8318;BME280;4196;48.926;8.964;2024-01-25T05:29:03;100286.41;;;7.11;90.19
8318;BME280;4196;48.926;8.964;2024-01-25T05:31:49;100334.75;;;7.19;91.24
8318;BME280;4196;48.926;8.964;2024-01-25T05:34:36;100338.09;;;7.17;91.38
8318;BME280;4196;48.926;8.964;2024-01-25T05:37:23;100340.19;;;7.01;91.91
8318;BME280;4196;48.926;8.964;2024-01-25T05:40:10;100319.19;;;6.89;92.15
8318;BME280;4196;48.926;8.964;2024-01-25T05:42:56;100333.69;;;6.87;92.74
8318;BME280;4196;48.926;8.964;2024-01-25T05:45:43;100351.84;;;6.90;93.45
8318;BME280;4196;48.926;8.964;2024-01-25T05:48:30;100345.34;;;6.76;94.85
8318;BME280;4196;48.926;8.964;2024-01-25T05:51:17;100327.03;;;6.67;94.73
8318;BME280;4196;48.926;8.964;2024-01-25T05:54:04;100365.44;;;6.86;96.07
8318;BME280;4196;48.926;8.964;2024-01-25T05:56:50;100338.22;;;6.94;97.03
8318;BME280;4196;48.926;8.964;2024-01-25T05:59:36;100354.66;;;6.98;97.77
8318;BME280;4196;48.926;8.964;2024-01-25T06:02:23;100345.81;;;6.90;98.66
8318;BME280;4196;48.926;8.964;2024-01-25T06:05:09;100335.63;;;6.67;99.68
8318;BME280;4196;48.926;8.964;2024-01-25T06:07:56;100336.88;;;6.53;100.00
8318;BME280;4196;48.926;8.964;2024-01-25T06:10:43;100344.84;;;6.61;100.00
8318;BME280;4196;48.926;8.964;2024-01-25T06:13:31;100363.25;;;6.73;100.00
8318;BME280;4196;48.926;8.964;2024-01-25T06:16:18;100338.13;;;6.40;100.00
8318;BME280;4196;48.926;8.964;2024-01-25T06:19:05;100329.72;;;6.44;100.00
8318;BME280;4196;48.926;8.964;2024-01-25T06:21:51;100329.28;;;6.32;100.00
8318;BME280;4196;48.926;8.964;2024-01-25T06:24:38;100289.66;;;6.03;100.00
8318;BME280;4196;48.926;8.964;2024-01-25T06:27:25;100293.22;;;6.07;100.00
8318;BME280;4196;48.926;8.964;2024-01-25T06:30:11;100337.69;;;6.52;100.00
8318;BME280;4196;48.926;8.964;2024-01-25T06:32:58;100309.53;;;6.31;100.00
8318;BME280;4196;48.926;8.964;2024-01-25T06:35:45;100341.53;;;6.65;100.00
8318;BME280;4196;48.926;8.964;2024-01-25T06:38:31;100347.91;;;6.76;100.00
8318;BME280;4196;48.926;8.964;2024-01-25T06:41:17;100288.72;;;6.50;100.00
8318;BME280;4196;48.926;8.964;2024-01-25T06:44:04;100353.47;;;6.88;100.00
8318;BME280;4196;48.926;8.964;2024-01-25T06:46:50;100353.06;;;6.76;100.00
8318;BME280;4196;48.926;8.964;2024-01-25T06:49:37;100317.25;;;6.57;100.00
8318;BME280;4196;48.926;8.964;2024-01-25T06:52:23;100373.38;;;6.67;100.00
8318;BME280;4196;48.926;8.964;2024-01-25T06:55:11;100331.81;;;6.31;100.00
8318;BME280;4196;48.926;8.964;2024-01-25T06:57:58;100342.75;;;6.25;100.00
8318;BME280;4196;48.926;8.964;2024-01-25T07:00:44;100390.47;;;6.41;100.00
8318;BME280;4196;48.926;8.964;2024-01-25T07:03:33;100379.81;;;6.30;100.00
8318;BME280;4196;48.926;8.964;2024-01-25T07:06:20;100404.59;;;6.28;100.00
8318;BME280;4196;48.926;8.964;2024-01-25T07:09:08;100381.91;;;5.94;100.00
8318;BME280;4196;48.926;8.964;2024-01-25T07:11:54;100363.13;;;5.96;100.00
8318;BME280;4196;48.926;8.964;2024-01-25T07:14:41;100355.81;;;5.62;100.00
8318;BME280;4196;48.926;8.964;2024-01-25T07:17:27;100427.41;;;5.96;100.00
8318;BME280;4196;48.926;8.964;2024-01-25T07:20:14;100405.31;;;5.56;100.00
8318;BME280;4196;48.926;8.964;2024-01-25T07:23:01;100424.03;;;5.54;100.00
8318;BME280;4196;48.926;8.964;2024-01-25T07:25:47;100400.13;;;5.34;100.00
8318;BME280;4196;48.926;8.964;2024-01-25T07:28:34;100410.19;;;5.50;100.00
8318;BME280;4196;48.926;8.964;2024-01-25T07:31:20;100406.84;;;5.30;100.00
8318;BME280;4196;48.926;8.964;2024-01-25T07:34:07;100390.47;;;5.07;100.00
8318;BME280;4196;48.926;8.964;2024-01-25T07:36:53;100403.13;;;5.03;100.00
8318;BME280;4196;48.926;8.964;2024-01-25T07:39:40;100379.78;;;4.76;100.00
8318;BME280;4196;48.926;8.964;2024-01-25T07:42:27;100392.63;;;4.76;100.00
8318;BME280;4196;48.926;8.964;2024-01-25T07:45:13;100393.41;;;4.75;100.00
8318;BME280;4196;48.926;8.964;2024-01-25T07:48:00;100405.56;;;4.79;100.00
8318;BME280;4196;48.926;8.964;2024-01-25T07:51:00;100404.19;;;5.29;100.00
8318;BME280;4196;48.926;8.964;2024-01-25T07:53:47;100405.19;;;5.53;100.00
8318;BME280;4196;48.926;8.964;2024-01-25T07:56:33;100435.94;;;5.95;100.00
8318;BME280;4196;48.926;8.964;2024-01-25T07:59:20;100360.44;;;5.48;100.00
8318;BME280;4196;48.926;8.964;2024-01-25T08:02:06;100432.53;;;5.96;100.00
8318;BME280;4196;48.926;8.964;2024-01-25T08:04:53;100406.47;;;5.87;100.00
8318;BME280;4196;48.926;8.964;2024-01-25T08:07:40;100389.06;;;5.80;100.00
8318;BME280;4196;48.926;8.964;2024-01-25T08:10:27;100340.13;;;5.54;100.00
8318;BME280;4196;48.926;8.964;2024-01-25T08:13:13;100409.06;;;6.10;100.00
8318;BME280;4196;48.926;8.964;2024-01-25T08:16:00;100414.03;;;6.05;100.00
8318;BME280;4196;48.926;8.964;2024-01-25T08:18:47;100391.00;;;6.08;100.00
8318;BME280;4196;48.926;8.964;2024-01-25T08:21:34;100386.03;;;6.13;100.00
8318;BME280;4196;48.926;8.964;2024-01-25T08:24:22;100362.81;;;6.35;100.00
8318;BME280;4196;48.926;8.964;2024-01-25T08:27:09;100369.56;;;6.56;100.00
8318;BME280;4196;48.926;8.964;2024-01-25T08:29:57;100413.00;;;6.97;100.00
8318;BME280;4196;48.926;8.964;2024-01-25T08:32:44;100363.47;;;6.79;100.00
8318;BME280;4196;48.926;8.964;2024-01-25T08:35:30;100380.88;;;6.86;100.00
8318;BME280;4196;48.926;8.964;2024-01-25T08:38:17;100376.81;;;6.93;100.00
8318;BME280;4196;48.926;8.964;2024-01-25T08:41:04;100392.56;;;7.02;100.00
8318;BME280;4196;48.926;8.964;2024-01-25T08:43:50;100404.44;;;6.98;100.00
8318;BME280;4196;48.926;8.964;2024-01-25T08:46:37;100394.41;;;7.06;100.00
8318;BME280;4196;48.926;8.964;2024-01-25T08:49:24;100389.72;;;6.94;100.00
8318;BME280;4196;48.926;8.964;2024-01-25T08:52:11;100371.94;;;7.02;100.00
8318;BME280;4196;48.926;8.964;2024-01-25T08:54:57;100396.06;;;7.31;100.00
8318;BME280;4196;48.926;8.964;2024-01-25T08:57:44;100413.25;;;7.31;100.00
8318;BME280;4196;48.926;8.964;2024-01-25T09:00:30;100430.66;;;7.38;100.00
8318;BME280;4196;48.926;8.964;2024-01-25T09:03:17;100428.09;;;7.39;100.00
8318;BME280;4196;48.926;8.964;2024-01-25T09:06:03;100461.81;;;7.72;100.00
8318;BME280;4196;48.926;8.964;2024-01-25T09:08:52;100378.28;;;7.39;100.00
8318;BME280;4196;48.926;8.964;2024-01-25T09:11:39;100435.16;;;7.72;100.00
8318;BME280;4196;48.926;8.964;2024-01-25T09:14:26;100447.47;;;7.81;100.00
8318;BME280;4196;48.926;8.964;2024-01-25T09:17:12;100437.53;;;7.93;100.00
8318;BME280;4196;48.926;8.964;2024-01-25T09:20:00;100471.19;;;8.26;100.00
8318;BME280;4196;48.926;8.964;2024-01-25T09:22:47;100420.44;;;7.96;100.00
8318;BME280;4196;48.926;8.964;2024-01-25T09:25:33;100450.25;;;8.17;100.00
8318;BME280;4196;48.926;8.964;2024-01-25T09:28:20;100467.78;;;8.27;100.00
8318;BME280;4196;48.926;8.964;2024-01-25T09:31:07;100457.34;;;8.24;100.00
8318;BME280;4196;48.926;8.964;2024-01-25T09:33:54;100427.00;;;8.15;100.00
8318;BME280;4196;48.926;8.964;2024-01-25T09:36:41;100451.84;;;8.40;100.00
8318;BME280;4196;48.926;8.964;2024-01-25T09:39:29;100452.75;;;8.42;100.00
8318;BME280;4196;48.926;8.964;2024-01-25T09:42:15;100447.88;;;8.52;100.00
8318;BME280;4196;48.926;8.964;2024-01-25T09:45:05;100440.28;;;8.58;100.00
8318;BME280;4196;48.926;8.964;2024-01-25T09:47:52;100445.69;;;8.65;99.81
8318;BME280;4196;48.926;8.964;2024-01-25T09:50:39;100441.47;;;8.69;98.42
8318;BME280;4196;48.926;8.964;2024-01-25T09:53:26;100433.03;;;8.76;98.24
8318;BME280;4196;48.926;8.964;2024-01-25T09:56:14;100460.00;;;9.19;95.55
8318;BME280;4196;48.926;8.964;2024-01-25T09:59:03;100424.72;;;9.21;92.44
8318;BME280;4196;48.926;8.964;2024-01-25T10:01:51;100453.91;;;9.52;90.81
8318;BME280;4196;48.926;8.964;2024-01-25T10:04:38;100488.13;;;9.78;89.04
8318;BME280;4196;48.926;8.964;2024-01-25T10:07:40;100495.94;;;9.79;88.88
8318;BME280;4196;48.926;8.964;2024-01-25T10:10:32;100480.59;;;9.51;88.12
8318;BME280;4196;48.926;8.964;2024-01-25T10:13:19;100470.69;;;9.34;87.83
8318;BME280;4196;48.926;8.964;2024-01-25T10:16:06;100491.06;;;9.55;88.45
8318;BME280;4196;48.926;8.964;2024-01-25T10:18:52;100489.50;;;9.62;88.06
8318;BME280;4196;48.926;8.964;2024-01-25T10:21:41;100494.56;;;9.57;88.87
8318;BME280;4196;48.926;8.964;2024-01-25T10:24:29;100478.22;;;9.60;89.85
8318;BME280;4196;48.926;8.964;2024-01-25T10:27:17;100465.72;;;9.77;88.98
8318;BME280;4196;48.926;8.964;2024-01-25T10:30:06;100474.81;;;10.36;83.29
8318;BME280;4196;48.926;8.964;2024-01-25T10:32:54;100481.59;;;10.72;80.81
8318;BME280;4196;48.926;8.964;2024-01-25T10:35:41;100470.81;;;10.52;78.33
8318;BME280;4196;48.926;8.964;2024-01-25T10:38:33;100483.34;;;10.75;77.99
8318;BME280;4196;48.926;8.964;2024-01-25T10:41:23;100470.38;;;10.75;76.81
8318;BME280;4196;48.926;8.964;2024-01-25T10:44:10;100440.81;;;10.62;75.87
8318;BME280;4196;48.926;8.964;2024-01-25T10:46:57;100478.56;;;10.96;75.14
8318;BME280;4196;48.926;8.964;2024-01-25T10:49:46;100479.75;;;11.12;73.95
8318;BME280;4196;48.926;8.964;2024-01-25T10:52:33;100442.53;;;11.08;73.70
8318;BME280;4196;48.926;8.964;2024-01-25T10:55:20;100446.22;;;11.23;71.88
8318;BME280;4196;48.926;8.964;2024-01-25T10:58:07;100470.88;;;11.49;69.75
8318;BME280;4196;48.926;8.964;2024-01-25T11:00:56;100465.03;;;11.63;68.89
8318;BME280;4196;48.926;8.964;2024-01-25T11:03:45;100399.81;;;11.38;68.01
8318;BME280;4196;48.926;8.964;2024-01-25T11:06:35;100445.81;;;11.50;67.83
8318;BME280;4196;48.926;8.964;2024-01-25T11:09:24;100460.78;;;11.68;68.66
8318;BME280;4196;48.926;8.964;2024-01-25T11:12:13;100432.31;;;11.72;68.97
8318;BME280;4196;48.926;8.964;2024-01-25T11:15:07;100365.94;;;11.27;69.15
8318;BME280;4196;48.926;8.964;2024-01-25T11:17:53;100428.41;;;11.43;70.10
8318;BME280;4196;48.926;8.964;2024-01-25T11:20:40;100412.44;;;11.18;70.06
8318;BME280;4196;48.926;8.964;2024-01-25T11:23:31;100424.53;;;11.19;69.58
8318;BME280;4196;48.926;8.964;2024-01-25T11:26:18;100421.47;;;11.42;69.92
8318;BME280;4196;48.926;8.964;2024-01-25T11:29:05;100400.91;;;11.55;68.98
8318;BME280;4196;48.926;8.964;2024-01-25T11:31:52;100407.06;;;11.62;68.92
8318;BME280;4196;48.926;8.964;2024-01-25T11:34:39;100411.06;;;11.39;68.78
8318;BME280;4196;48.926;8.964;2024-01-25T11:37:26;100418.22;;;11.55;69.28
8318;BME280;4196;48.926;8.964;2024-01-25T11:40:13;100368.69;;;11.38;69.28
8318;BME280;4196;48.926;8.964;2024-01-25T11:43:00;100387.03;;;11.52;69.07
8318;BME280;4196;48.926;8.964;2024-01-25T11:45:48;100405.94;;;11.45;68.82
8318;BME280;4196;48.926;8.964;2024-01-25T11:48:38;100420.16;;;11.68;68.27
8318;BME280;4196;48.926;8.964;2024-01-25T11:51:26;100417.50;;;11.64;67.82
8318;BME280;4196;48.926;8.964;2024-01-25T11:54:12;100407.47;;;11.88;67.31
8318;BME280;4196;48.926;8.964;2024-01-25T11:56:59;100372.09;;;11.95;68.04
8318;BME280;4196;48.926;8.964;2024-01-25T11:59:46;100400.16;;;12.23;66.14
8318;BME280;4196;48.926;8.964;2024-01-25T12:02:33;100402.44;;;11.99;65.07
8318;BME280;4196;48.926;8.964;2024-01-25T12:05:20;100361.28;;;11.64;64.96
8318;BME280;4196;48.926;8.964;2024-01-25T12:08:13;100394.06;;;11.59;65.70
8318;BME280;4196;48.926;8.964;2024-01-25T12:11:07;100367.78;;;11.37;65.67
8318;BME280;4196;48.926;8.964;2024-01-25T12:13:54;100345.25;;;11.30;65.87
8318;BME280;4196;48.926;8.964;2024-01-25T12:16:40;100383.50;;;11.47;65.93
8318;BME280;4196;48.926;8.964;2024-01-25T12:19:28;100350.09;;;11.09;66.31
8318;BME280;4196;48.926;8.964;2024-01-25T12:22:20;100329.78;;;10.83;67.17
8318;BME280;4196;48.926;8.964;2024-01-25T12:25:10;100337.72;;;10.93;67.95
8318;BME280;4196;48.926;8.964;2024-01-25T12:27:56;100366.63;;;11.17;68.02
8318;BME280;4196;48.926;8.964;2024-01-25T12:30:43;100320.94;;;11.25;66.71
8318;BME280;4196;48.926;8.964;2024-01-25T12:33:30;100361.41;;;11.73;65.96
8318;BME280;4196;48.926;8.964;2024-01-25T12:36:17;100362.41;;;11.83;66.32
8318;BME280;4196;48.926;8.964;2024-01-25T12:39:04;100329.16;;;11.56;66.56
8318;BME280;4196;48.926;8.964;2024-01-25T12:41:50;100329.19;;;11.59;64.83
8318;BME280;4196;48.926;8.964;2024-01-25T12:44:37;100321.38;;;11.56;64.18
8318;BME280;4196;48.926;8.964;2024-01-25T12:47:24;100308.28;;;11.45;63.55
8318;BME280;4196;48.926;8.964;2024-01-25T12:50:11;100309.16;;;11.46;63.33
8318;BME280;4196;48.926;8.964;2024-01-25T12:52:58;100328.19;;;11.48;62.95
8318;BME280;4196;48.926;8.964;2024-01-25T12:55:45;100315.19;;;11.46;63.88
8318;BME280;4196;48.926;8.964;2024-01-25T12:58:32;100311.88;;;11.56;63.22
8318;BME280;4196;48.926;8.964;2024-01-25T13:01:19;100292.72;;;11.45;63.57
8318;BME280;4196;48.926;8.964;2024-01-25T13:04:06;100281.44;;;11.42;64.40
8318;BME280;4196;48.926;8.964;2024-01-25T13:06:54;100284.81;;;11.37;63.54
8318;BME280;4196;48.926;8.964;2024-01-25T13:09:41;100290.84;;;11.35;63.35
8318;BME280;4196;48.926;8.964;2024-01-25T13:12:28;100288.16;;;11.27;64.21
8318;BME280;4196;48.926;8.964;2024-01-25T13:15:14;100283.88;;;11.34;65.19
8318;BME280;4196;48.926;8.964;2024-01-25T13:18:01;100233.50;;;11.15;63.57
8318;BME280;4196;48.926;8.964;2024-01-25T13:20:48;100282.31;;;11.42;63.01
8318;BME280;4196;48.926;8.964;2024-01-25T13:23:34;100299.78;;;11.58;63.89
8318;BME280;4196;48.926;8.964;2024-01-25T13:26:21;100250.31;;;11.42;63.75
8318;BME280;4196;48.926;8.964;2024-01-25T13:29:07;100229.63;;;11.48;62.68
8318;BME280;4196;48.926;8.964;2024-01-25T13:31:58;100262.59;;;11.58;61.40
8318;BME280;4196;48.926;8.964;2024-01-25T13:34:45;100292.06;;;11.60;62.26
8318;BME280;4196;48.926;8.964;2024-01-25T13:37:31;100271.06;;;11.45;62.77
8318;BME280;4196;48.926;8.964;2024-01-25T13:40:17;100255.50;;;11.42;63.83
8318;BME280;4196;48.926;8.964;2024-01-25T13:43:06;100227.56;;;11.22;63.08
8318;BME280;4196;48.926;8.964;2024-01-25T13:45:54;100275.19;;;11.27;63.64
8318;BME280;4196;48.926;8.964;2024-01-25T13:48:41;100282.75;;;11.12;64.72
8318;BME280;4196;48.926;8.964;2024-01-25T13:51:27;100262.53;;;10.91;65.56
8318;BME280;4196;48.926;8.964;2024-01-25T13:54:14;100283.72;;;11.20;65.41
8318;BME280;4196;48.926;8.964;2024-01-25T13:57:00;100262.78;;;11.06;65.97
8318;BME280;4196;48.926;8.964;2024-01-25T13:59:47;100262.94;;;11.19;65.28
8318;BME280;4196;48.926;8.964;2024-01-25T14:02:33;100279.63;;;11.37;64.45
8318;BME280;4196;48.926;8.964;2024-01-25T14:05:20;100250.09;;;11.26;64.09
8318;BME280;4196;48.926;8.964;2024-01-25T14:08:06;100241.28;;;11.15;64.71
8318;BME280;4196;48.926;8.964;2024-01-25T14:10:53;100268.44;;;11.40;64.24
8318;BME280;4196;48.926;8.964;2024-01-25T14:13:40;100268.31;;;11.32;64.29
8318;BME280;4196;48.926;8.964;2024-01-25T14:16:27;100273.34;;;11.22;65.05
8318;BME280;4196;48.926;8.964;2024-01-25T14:19:13;100242.13;;;11.14;65.68
8318;BME280;4196;48.926;8.964;2024-01-25T14:22:00;100212.44;;;10.91;64.64
8318;BME280;4196;48.926;8.964;2024-01-25T14:25:07;100221.78;;;10.79;65.34
8318;BME280;4196;48.926;8.964;2024-01-25T14:27:53;100258.97;;;10.84;65.65
8318;BME280;4196;48.926;8.964;2024-01-25T14:30:43;100222.25;;;10.54;65.72
8318;BME280;4196;48.926;8.964;2024-01-25T14:33:32;100237.00;;;10.59;65.12
8318;BME280;4196;48.926;8.964;2024-01-25T14:36:19;100215.06;;;10.37;66.04
8318;BME280;4196;48.926;8.964;2024-01-25T14:39:05;100236.97;;;10.58;65.81
8318;BME280;4196;48.926;8.964;2024-01-25T14:41:54;100259.69;;;10.74;66.12
8318;BME280;4196;48.926;8.964;2024-01-25T14:44:44;100219.53;;;10.46;66.16
8318;BME280;4196;48.926;8.964;2024-01-25T14:47:30;100206.59;;;10.48;66.07
8318;BME280;4196;48.926;8.964;2024-01-25T14:50:17;100229.84;;;10.45;67.27
8318;BME280;4196;48.926;8.964;2024-01-25T14:53:04;100227.38;;;10.51;67.05
8318;BME280;4196;48.926;8.964;2024-01-25T14:55:51;100240.25;;;10.48;67.37
8318;BME280;4196;48.926;8.964;2024-01-25T14:58:38;100219.88;;;10.19;68.51
8318;BME280;4196;48.926;8.964;2024-01-25T15:01:24;100208.50;;;10.09;68.45
8318;BME280;4196;48.926;8.964;2024-01-25T15:04:15;100223.19;;;10.10;69.45